Time;durP1;ratioP1;P1;durP2;ratioP2;P2;SDS_P1;SDS_P2;PMS_P1;PMS_P2;Temp;Humidity;BMP_temperature;BMP_pressure;BME280_temperature;BME280_humidity;BME280_pressure;Samples;Min_cycle;Max_cycle;Signal;HPM_P1;HPM_P2
2022/01/26 00:06:28;;;;;;;34.00;19.33;;;;;;;3.50;43.19;102140.41;10062632;29;20198;-80
2022/01/26 00:11:33;;;;;;;30.03;18.37;;;;;;;3.07;43.98;102143.03;10063361;29;20202;-80
2022/01/26 00:16:38;;;;;;;35.87;20.53;;;;;;;3.20;43.95;102137.97;10063204;29;20222;-80
2022/01/26 00:21:52;;;;;;;33.63;19.17;;;;;;;3.62;42.60;102143.94;10063150;29;20195;-80
2022/01/26 00:33:07;;;;;;;34.47;20.50;;;;;;;3.74;42.79;102159.75;10061374;29;20234;-81
2022/01/26 00:42:58;;;;;;;38.40;21.10;;;;;;;2.84;44.76;102153.25;10061757;29;20210;-80
2022/01/26 00:48:04;;;;;;;41.00;21.30;;;;;;;3.63;43.14;102150.38;10062574;29;20194;-80
2022/01/26 00:53:06;;;;;;;43.87;22.97;;;;;;;3.90;42.74;102153.25;10058281;29;20210;-80
2022/01/26 00:58:08;;;;;;;43.10;23.07;;;;;;;3.90;42.31;102136.47;10058578;29;20279;-80
2022/01/26 01:03:11;;;;;;;40.17;22.47;;;;;;;3.58;43.42;102125.13;10073925;29;20219;-79
2022/01/26 01:08:17;;;;;;;44.07;24.27;;;;;;;3.94;42.43;102123.66;10059244;29;20198;-79
2022/01/26 01:13:23;;;;;;;45.93;24.43;;;;;;;4.01;42.61;102124.31;10060599;29;20600;-79
2022/01/26 01:24:10;;;;;;;42.20;23.60;;;;;;;3.97;42.92;102128.75;10060757;29;20203;-80
2022/01/26 01:29:14;;;;;;;49.53;24.50;;;;;;;3.52;44.25;102131.75;10061449;29;20272;-80
2022/01/26 01:34:19;;;;;;;52.60;24.60;;;;;;;3.53;43.75;102128.69;10061213;29;20286;-79
2022/01/26 01:39:22;;;;;;;51.60;26.10;;;;;;;3.78;42.79;102125.41;10060292;29;20497;-82
2022/01/26 01:44:25;;;;;;;49.20;26.80;;;;;;;4.10;42.40;102124.72;10060009;29;20600;-79
2022/01/26 01:49:33;;;;;;;46.50;24.57;;;;;;;3.83;42.77;102133.03;10075330;29;20286;-79
2022/01/26 01:54:38;;;;;;;54.03;26.07;;;;;;;3.71;43.28;102123.91;10067825;29;20461;-79
2022/01/26 01:59:40;;;;;;;48.73;25.70;;;;;;;3.86;43.24;102113.75;10067132;29;20203;-80
2022/01/26 02:04:43;;;;;;;50.70;27.00;;;;;;;3.66;43.41;102117.16;10066877;29;20234;-80
2022/01/26 02:09:45;;;;;;;55.47;28.03;;;;;;;3.08;44.63;102105.63;10051820;29;20934;-79
2022/01/26 02:14:53;;;;;;;58.70;28.40;;;;;;;3.39;44.50;102113.38;10066390;29;20271;-80
2022/01/26 02:20:38;;;;;;;52.37;27.67;;;;;;;3.30;44.02;102117.72;10067336;29;20258;-80
2022/01/26 02:58:22;;;;;;;55.07;27.53;;;;;;;3.53;42.42;102083.09;10065217;29;20227;-81
2022/01/26 03:03:15;;;;;;;52.93;26.77;;;;;;;3.00;43.40;102084.50;10065383;29;20210;-81
2022/01/26 03:08:27;;;;;;;50.87;26.10;;;;;;;3.20;42.79;102067.25;10060482;29;20207;-81
2022/01/26 03:13:32;;;;;;;51.60;25.60;;;;;;;2.14;44.80;102063.47;10062263;29;20508;-81
2022/01/26 03:18:54;;;;;;;50.67;26.53;;;;;;;3.08;43.29;102044.13;10076971;29;20230;-81
2022/01/26 03:29:39;;;;;;;55.07;27.40;;;;;;;3.00;43.47;102023.06;10080674;29;20565;-81
2022/01/26 03:34:39;;;;;;;50.17;26.67;;;;;;;3.16;42.21;102038.09;10064408;29;20230;-81
2022/01/26 03:39:43;;;;;;;58.57;28.67;;;;;;;3.80;41.84;102035.63;10080454;29;20230;-79
2022/01/26 03:44:46;;;;;;;53.90;26.53;;;;;;;2.43;44.50;102028.00;10109646;29;20222;-79
2022/01/26 03:49:48;;;;;;;53.90;26.23;;;;;;;2.22;44.84;102033.19;10101647;29;20281;-79
2022/01/26 03:54:50;;;;;;;50.33;25.73;;;;;;;3.13;42.57;102038.59;10102463;29;20227;-80
2022/01/26 03:59:52;;;;;;;55.50;27.47;;;;;;;2.73;43.01;102034.06;10073816;29;20207;-80
2022/01/26 04:04:59;;;;;;;56.80;29.33;;;;;;;2.46;44.06;102038.63;10063412;29;20262;-80
2022/01/26 04:10:11;;;;;;;55.07;27.37;;;;;;;3.00;42.63;102034.22;10062707;29;20601;-80
2022/01/26 04:15:25;;;;;;;54.60;27.67;;;;;;;2.79;43.11;102037.81;10063333;29;20199;-81
2022/01/26 04:20:31;;;;;;;52.60;27.63;;;;;;;1.94;45.46;102046.31;10063277;29;20199;-80
2022/01/26 04:25:34;;;;;;;60.80;27.97;;;;;;;2.42;44.25;102052.28;10077431;29;20206;-80
2022/01/26 04:30:37;;;;;;;56.67;29.53;;;;;;;2.71;43.39;102055.81;10062658;29;20230;-80
2022/01/26 04:35:43;;;;;;;54.90;28.27;;;;;;;2.75;43.51;102054.22;10061778;29;20675;-81
2022/01/26 04:41:07;;;;;;;60.30;28.63;;;;;;;2.73;43.44;102053.63;10062394;29;20203;-80
2022/01/26 04:46:09;;;;;;;58.67;29.83;;;;;;;2.54;43.80;102057.78;10062458;29;20299;-81
2022/01/26 04:51:11;;;;;;;63.93;31.87;;;;;;;2.70;44.01;102056.91;10061484;29;20585;-80
2022/01/26 04:56:14;;;;;;;57.93;31.00;;;;;;;1.70;45.21;102067.81;10061908;29;20249;-81
2022/01/26 05:01:17;;;;;;;64.20;32.63;;;;;;;1.91;46.17;102062.44;10061693;29;20210;-82
2022/01/26 05:06:21;;;;;;;62.07;31.47;;;;;;;2.83;42.97;102059.38;10076502;29;20210;-81
2022/01/26 05:11:38;;;;;;;60.83;32.03;;;;;;;3.13;42.90;102058.16;10060830;29;20326;-81
2022/01/26 05:16:42;;;;;;;68.90;35.83;;;;;;;2.09;44.93;102066.97;10061666;29;20700;-80
2022/01/26 05:21:45;;;;;;;79.63;37.40;;;;;;;2.60;43.92;102090.25;10044202;29;20207;-80
2022/01/26 05:26:47;;;;;;;76.60;37.03;;;;;;;2.48;44.08;102106.22;10042489;29;20210;-80
2022/01/26 05:31:50;;;;;;;96.43;42.97;;;;;;;1.54;45.97;102097.28;10066794;29;20287;-81
2022/01/26 05:36:52;;;;;;;96.30;43.97;;;;;;;1.93;45.13;102090.09;10067849;29;20275;-79
2022/01/26 05:41:54;;;;;;;95.70;44.47;;;;;;;2.23;44.28;102087.91;10052523;29;20199;-80
2022/01/26 05:46:58;;;;;;;95.30;43.50;;;;;;;2.40;43.81;102070.38;10067439;29;20207;-80
2022/01/26 05:52:00;;;;;;;93.57;43.97;;;;;;;2.06;44.91;102072.19;10067689;29;20203;-79
2022/01/26 05:57:03;;;;;;;101.10;46.00;;;;;;;2.35;44.41;102064.69;10051076;29;20226;-79
2022/01/26 06:02:05;;;;;;;96.27;44.90;;;;;;;2.60;43.48;102057.59;10067326;29;20210;-80
2022/01/26 06:07:07;;;;;;;97.43;44.73;;;;;;;2.10;44.25;102040.78;10067121;29;20222;-80
2022/01/26 06:12:10;;;;;;;101.03;46.53;;;;;;;2.23;44.84;102018.16;10064953;29;20218;-79
2022/01/26 06:17:12;;;;;;;103.07;45.97;;;;;;;2.92;43.53;102013.16;10066632;29;20295;-80
2022/01/26 06:22:14;;;;;;;89.13;43.07;;;;;;;2.71;43.53;102036.28;10057129;29;20254;-80
2022/01/26 06:27:17;;;;;;;97.53;43.77;;;;;;;1.52;45.61;102055.72;10064463;29;20207;-80
2022/01/26 06:32:20;;;;;;;90.03;45.70;;;;;;;2.31;44.26;102041.16;10080272;29;20547;-80
2022/01/26 06:37:22;;;;;;;94.37;43.17;;;;;;;2.28;45.26;102058.41;10079202;29;20227;-80
2022/01/26 06:42:29;;;;;;;95.63;43.63;;;;;;;2.22;44.73;102060.25;10056477;29;20234;-79
2022/01/26 06:47:48;;;;;;;93.33;41.57;;;;;;;2.01;44.77;102049.81;10067685;29;20222;-80
2022/01/26 06:52:51;;;;;;;92.23;40.70;;;;;;;1.84;45.96;102033.81;10086343;29;20210;-79
2022/01/26 06:57:53;;;;;;;90.83;41.40;;;;;;;1.62;45.63;102049.53;10083396;29;20229;-80
2022/01/26 07:02:55;;;;;;;97.10;42.80;;;;;;;2.25;44.65;102029.06;10082800;29;20596;-79
2022/01/26 07:07:57;;;;;;;94.60;41.37;;;;;;;2.27;45.20;102029.66;10096932;29;20215;-80
2022/01/26 07:13:02;;;;;;;89.03;40.70;;;;;;;2.22;44.67;102033.19;10059337;29;20219;-79
2022/01/26 07:23:35;;;;;;;98.37;42.27;;;;;;;2.14;44.89;102067.09;10060288;29;20206;-80
2022/01/26 07:28:39;;;;;;;104.87;45.27;;;;;;;1.36;46.16;102056.50;10082635;29;20210;-79
2022/01/26 07:33:54;;;;;;;99.43;45.07;;;;;;;1.58;45.16;102051.13;10101248;29;20294;-79
2022/01/26 07:39:05;;;;;;;92.33;42.17;;;;;;;2.33;44.48;102061.28;10064963;29;20258;-79
2022/01/26 07:44:07;;;;;;;92.20;42.30;;;;;;;2.66;43.80;102055.75;10059563;29;20240;-80
2022/01/26 07:49:10;;;;;;;95.70;42.90;;;;;;;1.95;45.21;102062.78;10072423;29;20202;-79
2022/01/26 07:54:12;;;;;;;89.27;40.87;;;;;;;1.65;45.33;102073.31;10062055;29;20506;-80
2022/01/26 07:59:15;;;;;;;90.63;40.63;;;;;;;1.64;45.74;102089.19;10077830;29;20310;-79
2022/01/26 08:04:17;;;;;;;95.67;41.40;;;;;;;2.18;45.59;102071.06;10055098;29;20239;-79
2022/01/26 08:09:19;;;;;;;92.50;41.00;;;;;;;2.38;44.35;102053.00;10058885;29;20542;-79
2022/01/26 08:14:21;;;;;;;84.27;39.60;;;;;;;2.09;44.76;102057.75;10064900;29;20592;-79
2022/01/26 08:19:24;;;;;;;90.23;39.17;;;;;;;1.65;45.76;102064.94;10062481;29;20218;-79
2022/01/26 08:24:27;;;;;;;84.67;38.87;;;;;;;2.76;43.29;102083.00;10060769;29;20207;-80
2022/01/26 08:29:39;;;;;;;87.20;41.27;;;;;;;2.56;43.99;102084.31;10061206;29;20581;-79
2022/01/26 08:34:42;;;;;;;86.60;38.70;;;;;;;1.72;46.13;102062.84;10071718;29;20259;-79
2022/01/26 08:39:44;;;;;;;82.37;38.53;;;;;;;2.07;45.52;102083.13;10060584;29;20231;-80
2022/01/26 08:44:47;;;;;;;90.13;37.93;;;;;;;1.98;45.33;102112.50;10061420;29;20282;-80
2022/01/26 08:49:50;;;;;;;85.47;37.13;;;;;;;2.29;44.91;102110.34;10072535;29;20198;-80
2022/01/26 08:54:52;;;;;;;86.07;37.47;;;;;;;2.12;45.22;102093.53;10086698;29;20555;-80
2022/01/26 08:59:55;;;;;;;78.27;35.20;;;;;;;2.02;45.97;102099.78;10107892;29;20217;-80
2022/01/26 09:04:57;;;;;;;94.00;38.73;;;;;;;1.62;46.92;102121.19;10103219;29;20298;-80
2022/01/26 09:10:01;;;;;;;91.83;38.57;;;;;;;1.96;45.68;102117.47;10058665;29;20210;-80
2022/01/26 09:15:06;;;;;;;90.13;38.00;;;;;;;2.10;45.80;102116.09;10070746;29;20271;-79
2022/01/26 09:20:10;;;;;;;90.00;37.93;;;;;;;1.65;47.38;102103.97;10045246;29;20294;-79
2022/01/26 09:25:12;;;;;;;88.47;36.97;;;;;;;1.77;47.08;102102.00;10062586;29;20235;-80
2022/01/26 09:30:14;;;;;;;91.93;38.73;;;;;;;1.68;46.86;102104.31;10089628;29;20251;-79
2022/01/26 09:35:17;;;;;;;86.13;36.33;;;;;;;1.93;46.74;102108.75;10073104;29;20267;-79
2022/01/26 09:40:20;;;;;;;90.47;37.43;;;;;;;2.26;46.20;102095.78;10072390;29;20283;-79
2022/01/26 09:45:22;;;;;;;91.90;38.50;;;;;;;2.37;46.07;102108.00;10057103;29;20473;-80
2022/01/26 09:50:25;;;;;;;91.17;35.90;;;;;;;2.39;46.43;102082.63;10076213;29;20202;-79
2022/01/26 09:55:27;;;;;;;81.77;34.83;;;;;;;2.33;47.49;102087.25;10097492;29;20273;-80
2022/01/26 10:00:29;;;;;;;86.90;35.23;;;;;;;2.44;47.08;102077.13;10080284;29;20283;-79
2022/01/26 10:05:45;;;;;;;86.40;36.40;;;;;;;2.17;47.00;102077.72;10093826;29;20555;-79
2022/01/26 10:21:49;;;;;;;87.20;35.63;;;;;;;1.54;48.40;102084.22;10075482;29;20258;-80
2022/01/26 10:26:57;;;;;;;85.33;34.80;;;;;;;2.05;47.72;102079.72;10105977;29;20253;-79
2022/01/26 10:32:10;;;;;;;87.03;33.73;;;;;;;1.65;48.59;102087.25;10088002;29;20250;-80
2022/01/26 10:37:12;;;;;;;90.33;34.93;;;;;;;2.14;47.66;102100.56;10074060;29;20230;-79
2022/01/26 10:42:18;;;;;;;87.67;34.67;;;;;;;2.84;46.07;102102.97;10099834;29;20213;-79
2022/01/26 10:47:32;;;;;;;88.23;35.37;;;;;;;2.78;46.72;102092.81;10097793;29;20202;-80
2022/01/26 10:52:36;;;;;;;87.30;34.93;;;;;;;2.59;46.81;102088.56;10101540;29;20254;-80
2022/01/26 10:57:39;;;;;;;86.57;37.17;;;;;;;2.65;47.48;102109.06;10105289;29;20265;-80
2022/01/26 11:02:47;;;;;;;86.43;36.93;;;;;;;2.32;47.64;102101.44;10085057;29;20657;-79
2022/01/26 11:07:49;;;;;;;96.77;37.23;;;;;;;2.34;47.99;102091.72;10060566;29;20669;-79
2022/01/26 11:12:52;;;;;;;88.57;36.80;;;;;;;2.46;48.21;102127.97;10065973;29;20239;-81
2022/01/26 11:18:08;;;;;;;88.50;36.83;;;;;;;2.77;47.77;102135.81;10063157;29;20263;-79
2022/01/26 11:23:10;;;;;;;94.43;38.73;;;;;;;2.72;47.63;102121.75;10063632;29;20222;-79
2022/01/26 11:28:26;;;;;;;96.50;38.97;;;;;;;2.55;48.45;102115.31;10092282;29;20506;-79
2022/01/26 11:33:33;;;;;;;99.27;39.30;;;;;;;2.24;49.87;102095.19;10088690;29;20314;-80
2022/01/26 11:42:12;;;;;;;91.63;37.70;;;;;;;2.53;49.07;102095.16;10064755;29;20294;-79
2022/01/26 11:49:41;;;;;;;92.20;36.77;;;;;;;1.78;51.48;102098.13;10064879;29;20251;-80
2022/01/26 11:54:51;;;;;;;91.47;36.97;;;;;;;2.08;50.87;102098.75;10061562;29;20211;-80
2022/01/26 12:00:02;;;;;;;88.27;38.40;;;;;;;2.71;49.21;102111.66;10060040;29;20330;-80
2022/01/26 12:05:07;;;;;;;90.27;35.63;;;;;;;2.35;50.41;102098.16;10060345;29;20215;-80
2022/01/26 12:10:18;;;;;;;90.33;35.77;;;;;;;2.46;50.26;102100.91;10081061;29;20210;-80
2022/01/26 12:15:26;;;;;;;83.77;34.37;;;;;;;3.41;47.43;102097.22;10077747;29;20231;-80
2022/01/26 12:36:27;;;;;;;78.90;32.20;;;;;;;2.67;49.05;102043.50;10100631;29;20197;-81
2022/01/26 12:41:35;;;;;;;74.70;31.60;;;;;;;3.26;47.62;102044.72;10080683;29;20222;-79
2022/01/26 12:46:38;;;;;;;77.50;30.87;;;;;;;2.55;49.83;102031.56;10062044;29;20231;-79
2022/01/26 12:51:51;;;;;;;70.53;30.03;;;;;;;2.22;50.12;102038.78;10061971;29;20528;-80
2022/01/26 12:57:06;;;;;;;69.90;28.17;;;;;;;2.24;50.35;102031.00;10054310;29;20237;-81
2022/01/26 13:02:09;;;;;;;68.70;28.37;;;;;;;1.71;52.07;102024.91;10054608;29;20254;-81
2022/01/26 13:07:17;;;;;;;65.53;27.90;;;;;;;2.59;49.48;102004.78;10058129;29;20206;-80
2022/01/26 13:12:32;;;;;;;72.67;29.27;;;;;;;2.85;49.07;102023.66;10055165;29;20230;-80
2022/01/26 13:17:43;;;;;;;69.77;29.13;;;;;;;2.26;50.56;102009.28;10056678;29;20317;-82
2022/01/26 13:43:50;;;;;;;56.47;26.87;;;;;;;2.83;48.57;101995.13;10060541;29;20528;-82
2022/01/26 13:53:55;;;;;;;61.63;26.47;;;;;;;2.45;49.00;102003.44;10077795;29;20214;-80
2022/01/26 13:59:10;;;;;;;61.03;25.73;;;;;;;2.30;50.07;102006.84;10067160;29;20233;-81
2022/01/26 14:04:15;;;;;;;55.27;24.43;;;;;;;2.46;49.76;101999.56;10065015;29;20231;-81
2022/01/26 14:09:17;;;;;;;66.50;26.90;;;;;;;2.50;49.08;102000.75;10052192;29;20274;-81
2022/01/26 14:14:30;;;;;;;55.67;23.50;;;;;;;2.57;48.88;102010.63;10066164;29;20234;-81
2022/01/26 14:40:27;;;;;;;47.60;23.90;;;;;;;2.88;49.22;101981.25;10048532;29;20317;-80
2022/01/26 14:56:00;;;;;;;53.53;23.00;;;;;;;2.85;49.55;101978.97;10058686;29;20206;-80
2022/01/26 15:08:45;;;;;;;46.60;21.27;;;;;;;3.17;49.05;101959.59;10063656;29;20576;-80
2022/01/26 15:29:57;;;;;;;50.07;23.27;;;;;;;2.55;50.73;101970.13;10049122;29;20290;-82
2022/01/26 15:33:37;;;;;;;47.10;21.97;;;;;;;2.32;50.73;101987.88;10053229;29;20287;-80
2022/01/26 16:21:18;;;;;;;48.23;22.67;;;;;;;2.54;51.00;101962.84;10060571;29;20330;-81
2022/01/26 16:53:58;;;;;;;50.27;23.90;;;;;;;3.23;49.72;101949.31;10047122;29;20238;-81
2022/01/26 17:26:02;;;;;;;57.77;25.03;;;;;;;2.55;51.79;101948.66;10027304;29;20203;-81
2022/01/26 18:46:24;;;;;;;52.97;24.23;;;;;;;1.78;55.05;101897.34;10069590;29;20325;-81
2022/01/26 18:51:08;;;;;;;57.17;24.97;;;;;;;2.56;52.88;101905.63;10054606;29;20627;-81
2022/01/26 18:56:10;;;;;;;58.37;25.60;;;;;;;2.54;52.72;101907.88;10058520;29;20620;-80
2022/01/26 19:01:12;;;;;;;56.57;24.97;;;;;;;1.95;54.27;101898.22;10056712;29;20265;-81
2022/01/26 19:06:15;;;;;;;57.37;24.47;;;;;;;1.72;55.14;101901.13;10056199;29;20351;-81
2022/01/26 19:11:20;;;;;;;55.90;25.43;;;;;;;1.61;55.03;101913.19;10049897;29;20242;-81
2022/01/26 19:26:53;;;;;;;61.67;27.60;;;;;;;2.34;54.42;101892.72;10043539;29;20262;-82
2022/01/26 19:43:32;;;;;;;55.70;25.63;;;;;;;2.63;53.26;101891.50;10063578;29;20223;-82
2022/01/26 19:53:06;;;;;;;56.07;25.30;;;;;;;2.19;54.45;101883.00;10063807;29;20672;-81
2022/01/26 19:58:08;;;;;;;60.70;26.40;;;;;;;1.94;55.66;101868.66;10063208;29;20228;-82
2022/01/26 20:03:11;;;;;;;62.37;25.43;;;;;;;2.56;53.08;101860.16;10062773;29;20539;-82
2022/01/26 20:08:32;;;;;;;58.20;26.30;;;;;;;2.53;53.30;101855.06;10057397;29;20282;-82
2022/01/26 20:13:40;;;;;;;56.10;25.23;;;;;;;2.29;53.70;101850.81;10058258;29;20305;-82
2022/01/26 20:18:42;;;;;;;54.83;24.40;;;;;;;1.89;55.49;101849.06;10047346;29;20203;-81
2022/01/26 20:23:45;;;;;;;50.47;25.20;;;;;;;1.25;56.42;101850.34;10077503;29;20250;-81
2022/01/26 20:28:47;;;;;;;49.03;23.93;;;;;;;1.80;55.81;101840.22;10063002;29;20752;-81
2022/01/26 20:33:51;;;;;;;54.40;24.43;;;;;;;1.42;56.35;101837.28;10061658;29;20222;-79
2022/01/26 20:38:53;;;;;;;49.83;23.37;;;;;;;2.29;54.22;101826.53;10061718;29;20214;-80
2022/01/26 20:43:55;;;;;;;55.03;24.43;;;;;;;1.90;55.02;101820.06;10060447;29;20251;-82
2022/01/26 20:48:58;;;;;;;57.10;26.80;;;;;;;1.91;55.10;101827.34;10046131;29;20214;-81
2022/01/26 20:54:00;;;;;;;54.90;25.23;;;;;;;1.40;56.79;101834.75;10060947;29;20199;-80
2022/01/26 20:59:03;;;;;;;55.03;24.17;;;;;;;1.65;56.28;101837.19;10061013;29;20203;-81
2022/01/26 21:04:05;;;;;;;55.17;25.27;;;;;;;1.75;55.80;101822.56;10061199;29;20226;-80
2022/01/26 21:09:07;;;;;;;41.40;22.33;;;;;;;1.88;55.34;101823.09;10060891;29;20237;-83
2022/01/26 21:14:09;;;;;;;46.80;22.90;;;;;;;2.46;53.81;101818.13;10060780;29;20656;-81
2022/01/26 21:19:12;;;;;;;46.67;23.93;;;;;;;2.31;54.42;101818.72;10056683;29;20210;-81
2022/01/26 21:24:14;;;;;;;49.23;24.37;;;;;;;1.73;55.35;101810.81;10060205;29;20234;-81
2022/01/26 21:29:16;;;;;;;51.13;24.00;;;;;;;2.62;53.09;101803.25;10060263;29;20784;-81
2022/01/26 21:34:20;;;;;;;52.97;23.17;;;;;;;1.75;54.89;101825.34;10059937;29;20238;-81
2022/01/26 21:39:22;;;;;;;44.57;23.67;;;;;;;2.14;54.31;101810.41;10055737;29;20215;-81
2022/01/26 21:44:24;;;;;;;48.23;23.63;;;;;;;1.64;55.53;101798.41;10057230;29;20688;-81
2022/01/26 21:49:26;;;;;;;47.23;23.57;;;;;;;2.28;54.08;101785.78;10023836;29;20214;-81
2022/01/26 21:54:28;;;;;;;48.43;22.53;;;;;;;2.02;54.80;101781.78;10058518;29;20515;-81
2022/01/26 21:59:31;;;;;;;44.03;21.30;;;;;;;2.10;54.77;101791.63;10059005;29;20202;-81
2022/01/26 22:04:33;;;;;;;45.40;22.83;;;;;;;1.72;55.60;101789.63;10051102;29;20756;-82
2022/01/26 22:09:35;;;;;;;46.97;22.77;;;;;;;1.67;55.88;101795.09;10065227;29;20215;-82
2022/01/26 22:14:38;;;;;;;42.47;20.73;;;;;;;1.35;56.95;101787.31;10067433;29;20259;-81
2022/01/26 22:19:40;;;;;;;46.27;23.57;;;;;;;2.23;53.52;101799.66;10056961;29;20267;-80
2022/01/26 22:24:42;;;;;;;44.13;22.43;;;;;;;1.76;54.28;101793.59;10061735;29;20244;-80
2022/01/26 22:29:45;;;;;;;47.83;21.00;;;;;;;2.51;52.84;101781.91;10066436;29;20226;-80
2022/01/26 22:34:48;;;;;;;40.87;20.23;;;;;;;2.30;52.93;101778.00;10065150;29;20246;-80
2022/01/26 22:39:57;;;;;;;40.80;22.13;;;;;;;2.21;53.12;101780.38;10064421;29;20592;-81
2022/01/26 22:45:00;;;;;;;39.70;20.40;;;;;;;2.28;53.45;101774.63;10065408;29;20211;-81
2022/01/26 22:50:02;;;;;;;40.47;19.93;;;;;;;1.89;54.05;101757.03;10066628;29;20198;-81
2022/01/26 22:55:05;;;;;;;38.80;20.03;;;;;;;1.98;53.92;101761.06;10065227;29;20274;-83
2022/01/26 23:00:37;;;;;;;37.50;19.90;;;;;;;1.89;54.15;101765.41;10051748;29;20275;-81
2022/01/26 23:10:44;;;;;;;37.50;19.23;;;;;;;1.84;54.60;101756.91;10065999;29;20203;-81
2022/01/26 23:15:46;;;;;;;42.73;21.47;;;;;;;1.32;55.93;101768.31;10064808;29;20258;-81
2022/01/26 23:21:08;;;;;;;38.73;19.40;;;;;;;1.78;54.33;101755.16;10051387;29;20286;-81
2022/01/26 23:42:09;;;;;;;33.77;17.90;;;;;;;2.17;52.63;101751.28;10063851;29;20251;-81
